Time;durP1;ratioP1;P1;durP2;ratioP2;P2;SDS_P1;SDS_P2;PMS_P1;PMS_P2;Temp;Humidity;BMP_temperature;BMP_pressure;BME280_temperature;BME280_humidity;BME280_pressure;Samples;Min_cycle;Max_cycle;Signal;HPM_P1;HPM_P2
2023/10/30 00:01:32;;;;;;;4.60;0.98;;;10.50;99.90;;;;;;5034282;28;20048;-81
2023/10/30 00:03:58;;;;;;;7.18;1.27;;;10.50;99.90;;;;;;5051310;28;20074;-81
2023/10/30 00:06:24;;;;;;;5.85;0.75;;;10.50;99.90;;;;;;5054589;28;20044;-80
2023/10/30 00:08:49;;;;;;;6.03;0.60;;;10.50;99.90;;;;;;5038237;28;20045;-80
2023/10/30 00:11:15;;;;;;;5.90;0.90;;;10.50;99.90;;;;;;5034690;28;20060;-81
2023/10/30 00:13:41;;;;;;;6.75;1.20;;;10.50;99.90;;;;;;5034568;28;20392;-80
2023/10/30 00:16:10;;;;;;;7.40;1.20;;;10.50;99.90;;;;;;5034132;28;20057;-80
2023/10/30 00:18:38;;;;;;;5.15;0.90;;;10.40;99.90;;;;;;5017972;28;20052;-80
2023/10/30 00:21:07;;;;;;;8.38;1.40;;;10.40;99.90;;;;;;5034689;28;20067;-80
2023/10/30 00:23:33;;;;;;;13.52;1.85;;;10.40;99.90;;;;;;5047609;28;20041;-80
2023/10/30 00:25:59;;;;;;;7.35;1.52;;;10.40;99.90;;;;;;5053830;28;20411;-81
2023/10/30 00:28:27;;;;;;;4.15;0.88;;;10.40;99.90;;;;;;5054172;28;20572;-81
2023/10/30 00:30:53;;;;;;;5.18;1.02;;;10.40;99.90;;;;;;5053346;28;20530;-80
2023/10/30 00:33:19;;;;;;;4.22;0.80;;;10.40;99.90;;;;;;5054129;28;20438;-80
2023/10/30 00:35:44;;;;;;;7.40;1.10;;;10.30;99.90;;;;;;5054047;28;20537;-81
2023/10/30 00:38:10;;;;;;;6.07;0.80;;;10.30;99.90;;;;;;5054302;28;20163;-80
2023/10/30 00:40:36;;;;;;;5.57;0.88;;;10.30;99.90;;;;;;5053475;28;20127;-80
2023/10/30 00:43:01;;;;;;;5.45;0.80;;;10.30;99.90;;;;;;5053334;28;20410;-80
2023/10/30 00:45:27;;;;;;;8.52;1.10;;;10.20;99.90;;;;;;5054208;28;20044;-80
2023/10/30 00:47:53;;;;;;;9.30;1.15;;;10.30;99.90;;;;;;5054056;28;20102;-80
2023/10/30 00:50:18;;;;;;;7.05;1.20;;;10.20;99.90;;;;;;5053746;28;20573;-80
2023/10/30 00:52:44;;;;;;;8.48;1.10;;;10.20;99.90;;;;;;5054544;28;20127;-81
2023/10/30 00:55:10;;;;;;;5.53;1.00;;;10.10;99.90;;;;;;5053716;28;20048;-80
2023/10/30 00:57:35;;;;;;;5.15;0.88;;;10.10;99.90;;;;;;5053775;28;20090;-80
2023/10/30 01:00:01;;;;;;;4.40;0.80;;;10.10;99.90;;;;;;5054081;28;20044;-80
2023/10/30 01:02:27;;;;;;;3.92;0.80;;;10.10;99.90;;;;;;5055864;28;20119;-80
2023/10/30 01:04:52;;;;;;;4.45;0.70;;;10.10;99.90;;;;;;5053257;28;20045;-80
2023/10/30 01:07:19;;;;;;;5.07;1.20;;;10.10;99.90;;;;;;5050296;28;20056;-81
2023/10/30 01:09:44;;;;;;;6.82;1.60;;;10.00;99.90;;;;;;5033635;28;20053;-80
2023/10/30 01:12:10;;;;;;;4.20;0.90;;;10.10;99.90;;;;;;5033607;28;20496;-80
2023/10/30 01:14:36;;;;;;;5.22;1.02;;;10.00;99.90;;;;;;5054035;28;20056;-80
2023/10/30 01:17:02;;;;;;;4.30;1.02;;;10.00;99.90;;;;;;5060682;28;20048;-80
2023/10/30 01:19:27;;;;;;;3.28;1.08;;;10.00;99.90;;;;;;5057163;28;20045;-79
2023/10/30 01:21:53;;;;;;;5.22;1.10;;;10.00;99.90;;;;;;5057400;28;20403;-80
2023/10/30 01:24:19;;;;;;;5.78;1.35;;;10.00;99.90;;;;;;5056976;28;20397;-81
2023/10/30 01:26:44;;;;;;;4.35;0.93;;;10.00;99.90;;;;;;5057518;28;20083;-80
2023/10/30 01:29:10;;;;;;;5.88;0.77;;;10.00;99.90;;;;;;5057482;28;20119;-80
2023/10/30 01:31:35;;;;;;;8.38;1.30;;;10.00;99.90;;;;;;5057589;28;20517;-80
2023/10/30 01:34:01;;;;;;;4.50;0.90;;;10.00;99.90;;;;;;5057239;28;20048;-79
2023/10/30 01:36:27;;;;;;;8.05;1.45;;;10.00;99.90;;;;;;5057677;28;20051;-81
2023/10/30 01:38:52;;;;;;;6.50;1.40;;;10.00;99.90;;;;;;5068810;28;20139;-80
2023/10/30 01:41:18;;;;;;;8.52;1.10;;;9.90;99.90;;;;;;5074016;28;20458;-81
2023/10/30 01:43:44;;;;;;;4.03;1.00;;;9.90;99.90;;;;;;5066168;28;20094;-80
2023/10/30 01:46:09;;;;;;;3.22;0.93;;;9.90;99.90;;;;;;5056775;28;20056;-80
2023/10/30 01:48:36;;;;;;;4.28;0.98;;;9.90;99.90;;;;;;5057291;28;20048;-80
2023/10/30 01:51:04;;;;;;;5.50;1.08;;;9.90;99.90;;;;;;5057400;28;20044;-80
2023/10/30 01:53:31;;;;;;;4.55;1.17;;;9.90;99.90;;;;;;5051609;28;20123;-79
2023/10/30 01:55:59;;;;;;;3.40;1.00;;;9.90;99.90;;;;;;5046706;28;20051;-80
2023/10/30 01:58:25;;;;;;;6.55;1.33;;;9.90;99.90;;;;;;5037396;28;20053;-80
2023/10/30 02:00:53;;;;;;;4.60;1.00;;;9.90;99.90;;;;;;5037084;28;20095;-79
2023/10/30 02:03:19;;;;;;;4.63;1.10;;;9.90;99.90;;;;;;5036761;28;20127;-80
2023/10/30 02:05:45;;;;;;;8.40;1.25;;;9.80;99.90;;;;;;5036625;28;20049;-80
2023/10/30 02:08:11;;;;;;;3.58;0.98;;;9.80;99.90;;;;;;5063032;28;20060;-80
2023/10/30 02:10:37;;;;;;;9.38;1.75;;;9.90;99.90;;;;;;5053273;28;20484;-80
2023/10/30 02:13:09;;;;;;;4.60;1.25;;;9.80;99.90;;;;;;5053672;28;20048;-81
2023/10/30 02:15:35;;;;;;;11.65;1.67;;;9.90;99.90;;;;;;5037316;28;20393;-81
2023/10/30 02:18:01;;;;;;;7.18;1.17;;;9.80;99.90;;;;;;5056869;28;20102;-80
2023/10/30 02:20:27;;;;;;;5.68;1.67;;;9.90;99.90;;;;;;5056830;28;20404;-80
2023/10/30 02:22:53;;;;;;;9.32;1.20;;;9.80;99.90;;;;;;5049125;28;20040;-80
2023/10/30 02:25:22;;;;;;;5.80;0.93;;;9.80;99.90;;;;;;5056432;28;20059;-81
2023/10/30 02:27:49;;;;;;;5.05;0.98;;;9.80;99.90;;;;;;5073245;28;20048;-81
2023/10/30 02:30:15;;;;;;;7.20;1.50;;;9.90;99.90;;;;;;5056500;28;20048;-80
2023/10/30 02:32:42;;;;;;;9.43;1.60;;;9.80;99.90;;;;;;5056393;28;20416;-80
2023/10/30 02:35:16;;;;;;;3.53;1.00;;;9.80;99.90;;;;;;5056128;28;20167;-80
2023/10/30 02:37:42;;;;;;;11.95;1.98;;;9.90;99.90;;;;;;5055710;28;20532;-80
2023/10/30 02:40:09;;;;;;;5.38;1.55;;;9.80;99.90;;;;;;5056250;28;20045;-80
2023/10/30 02:42:35;;;;;;;8.88;1.55;;;9.90;99.90;;;;;;5056061;28;20051;-80
2023/10/30 02:45:03;;;;;;;8.40;1.55;;;9.90;99.90;;;;;;5055694;28;20044;-80
2023/10/30 02:47:30;;;;;;;10.77;1.65;;;9.90;99.90;;;;;;5055405;28;20503;-80
2023/10/30 02:49:55;;;;;;;12.65;1.73;;;9.80;99.90;;;;;;5055681;28;20040;-80
2023/10/30 02:52:21;;;;;;;7.88;1.20;;;9.80;99.90;;;;;;5056103;28;20123;-81
2023/10/30 02:54:47;;;;;;;9.10;1.30;;;9.90;99.90;;;;;;5055789;28;20044;-80
2023/10/30 02:57:15;;;;;;;5.32;1.70;;;9.80;99.90;;;;;;5056148;28;20052;-80
2023/10/30 02:59:41;;;;;;;7.50;1.30;;;9.80;99.90;;;;;;5055828;28;20051;-80
2023/10/30 03:02:07;;;;;;;9.70;1.50;;;9.90;99.90;;;;;;5053544;28;20492;-80
2023/10/30 03:04:34;;;;;;;11.43;1.77;;;9.90;99.90;;;;;;5046903;28;20115;-80
2023/10/30 03:07:00;;;;;;;10.35;1.90;;;9.80;99.90;;;;;;5054506;28;20044;-79
2023/10/30 03:09:30;;;;;;;7.38;1.60;;;9.90;99.90;;;;;;5052286;28;20132;-80
2023/10/30 03:11:56;;;;;;;9.10;1.63;;;9.80;99.90;;;;;;5052122;28;20488;-80
2023/10/30 03:14:21;;;;;;;9.05;1.80;;;9.90;99.90;;;;;;5060019;28;20084;-80
2023/10/30 03:16:47;;;;;;;4.75;1.00;;;9.90;99.90;;;;;;5068363;28;20087;-80
2023/10/30 03:19:13;;;;;;;8.07;1.55;;;9.90;99.90;;;;;;5060671;28;20048;-80
2023/10/30 03:21:39;;;;;;;8.43;1.63;;;9.80;99.90;;;;;;5055544;28;20048;-80
2023/10/30 03:24:05;;;;;;;12.00;1.50;;;9.80;99.90;;;;;;5038455;28;20049;-80
2023/10/30 03:26:31;;;;;;;10.35;1.45;;;9.80;99.90;;;;;;5055630;28;20082;-79
2023/10/30 03:28:56;;;;;;;11.27;1.35;;;9.80;99.90;;;;;;5055427;28;20483;-81
2023/10/30 03:31:23;;;;;;;9.68;1.58;;;9.80;99.90;;;;;;5054670;28;20495;-80
2023/10/30 03:33:48;;;;;;;6.55;1.58;;;9.80;99.90;;;;;;5055185;28;20052;-80
2023/10/30 03:36:22;;;;;;;10.02;1.55;;;9.80;99.90;;;;;;5054292;28;20127;-80
2023/10/30 03:38:48;;;;;;;8.88;2.35;;;9.80;99.90;;;;;;5055057;28;20120;-80
2023/10/30 03:41:14;;;;;;;9.50;1.38;;;9.70;99.90;;;;;;5055309;28;20062;-80
2023/10/30 03:43:39;;;;;;;6.03;1.20;;;9.80;99.90;;;;;;5054715;28;20580;-80
2023/10/30 03:46:05;;;;;;;9.80;2.00;;;9.80;99.90;;;;;;5055057;28;20093;-80
2023/10/30 03:48:31;;;;;;;13.32;1.85;;;9.80;99.90;;;;;;5054384;28;20040;-80
2023/10/30 03:50:57;;;;;;;7.15;1.65;;;9.80;99.90;;;;;;5054452;28;20484;-80
2023/10/30 03:53:22;;;;;;;10.27;1.40;;;9.80;99.90;;;;;;5054611;28;20048;-79
2023/10/30 03:55:48;;;;;;;10.73;1.60;;;9.70;99.90;;;;;;5047948;28;20055;-81
2023/10/30 03:58:15;;;;;;;7.82;1.35;;;9.70;99.90;;;;;;5034825;28;20134;-79
2023/10/30 04:00:41;;;;;;;8.45;1.30;;;9.70;99.90;;;;;;5034664;28;20136;-80
2023/10/30 04:03:07;;;;;;;8.40;1.67;;;9.70;99.90;;;;;;5044473;28;20519;-80
2023/10/30 04:05:33;;;;;;;8.65;1.38;;;9.70;99.90;;;;;;5054824;28;20043;-80
2023/10/30 04:07:58;;;;;;;7.00;1.67;;;9.70;99.90;;;;;;5045391;28;20635;-80
2023/10/30 04:10:24;;;;;;;8.90;1.48;;;9.70;99.90;;;;;;5034826;28;20045;-80
2023/10/30 04:12:50;;;;;;;16.02;2.30;;;9.70;99.90;;;;;;5051656;28;20107;-80
2023/10/30 04:15:18;;;;;;;9.18;1.83;;;9.80;99.90;;;;;;5053780;28;20053;-80
2023/10/30 04:17:44;;;;;;;9.68;1.63;;;9.70;99.90;;;;;;5053572;28;20048;-79
2023/10/30 04:20:10;;;;;;;11.20;2.00;;;9.70;99.90;;;;;;5053672;28;20107;-80
2023/10/30 04:22:36;;;;;;;10.63;1.70;;;9.70;99.90;;;;;;5053842;28;20044;-80
2023/10/30 04:25:02;;;;;;;9.15;1.90;;;9.70;99.90;;;;;;5054479;28;20545;-79
2023/10/30 04:27:28;;;;;;;8.63;1.58;;;9.70;99.90;;;;;;5054089;28;20060;-80
2023/10/30 04:29:54;;;;;;;8.35;1.50;;;9.70;99.90;;;;;;5054305;28;20062;-81
2023/10/30 04:32:20;;;;;;;10.02;1.65;;;9.70;99.90;;;;;;5054487;28;20052;-80
2023/10/30 04:34:46;;;;;;;7.70;1.70;;;9.70;99.90;;;;;;5053827;28;20491;-80
2023/10/30 04:37:12;;;;;;;6.07;1.10;;;9.80;99.90;;;;;;5054291;28;20044;-80
2023/10/30 04:39:38;;;;;;;11.65;1.70;;;9.70;99.90;;;;;;5054337;28;20056;-79
2023/10/30 04:42:04;;;;;;;12.23;1.58;;;9.70;99.90;;;;;;5053706;28;20668;-80
2023/10/30 04:44:29;;;;;;;10.13;1.30;;;9.70;99.90;;;;;;5053446;28;20052;-80
2023/10/30 04:46:55;;;;;;;10.00;1.52;;;9.70;99.90;;;;;;5053775;28;20044;-80
2023/10/30 04:49:20;;;;;;;14.85;1.42;;;9.70;99.90;;;;;;5053909;28;20329;-80
2023/10/30 04:51:46;;;;;;;10.07;1.50;;;9.70;99.90;;;;;;5054032;28;20395;-80
2023/10/30 04:54:12;;;;;;;7.80;1.30;;;9.70;99.90;;;;;;5053804;28;20102;-80
2023/10/30 04:56:37;;;;;;;11.00;1.67;;;9.70;99.90;;;;;;5053850;28;20044;-80
2023/10/30 04:59:03;;;;;;;7.75;1.45;;;9.60;99.90;;;;;;5053702;28;20048;-80
2023/10/30 05:01:29;;;;;;;5.45;1.27;;;9.80;99.90;;;;;;5054033;28;20052;-79
2023/10/30 05:03:54;;;;;;;13.60;1.73;;;9.70;99.90;;;;;;5036938;28;20432;-80
2023/10/30 05:06:20;;;;;;;6.88;1.40;;;9.60;99.90;;;;;;5033811;28;20182;-79
2023/10/30 05:08:45;;;;;;;12.00;1.88;;;9.70;99.90;;;;;;5051342;28;20101;-80
2023/10/30 05:11:11;;;;;;;10.07;1.45;;;9.60;99.90;;;;;;5053469;28;20131;-80
2023/10/30 05:13:37;;;;;;;9.45;1.20;;;9.60;99.90;;;;;;5054171;28;20507;-79
2023/10/30 05:16:03;;;;;;;7.95;1.42;;;9.60;99.90;;;;;;5065010;28;20053;-80
2023/10/30 05:18:30;;;;;;;8.70;1.60;;;9.60;99.90;;;;;;5053823;28;20529;-80
2023/10/30 05:20:55;;;;;;;7.70;1.20;;;9.60;99.90;;;;;;5053340;28;20446;-80
2023/10/30 05:23:21;;;;;;;5.60;1.38;;;9.60;99.90;;;;;;5052704;28;20135;-80
2023/10/30 05:25:46;;;;;;;8.82;1.40;;;9.60;99.90;;;;;;5053636;28;20128;-81
2023/10/30 05:28:12;;;;;;;10.98;1.30;;;9.60;99.90;;;;;;5051303;28;20064;-80
2023/10/30 05:30:38;;;;;;;7.90;1.50;;;9.60;99.90;;;;;;5053630;28;20060;-81
2023/10/30 05:33:04;;;;;;;9.65;1.48;;;9.60;99.90;;;;;;5037018;28;20458;-80
2023/10/30 05:35:31;;;;;;;11.50;1.60;;;9.50;99.90;;;;;;5053044;28;20135;-80
2023/10/30 05:37:56;;;;;;;7.80;1.38;;;9.50;99.90;;;;;;5053738;28;20065;-80
2023/10/30 05:40:23;;;;;;;11.88;1.42;;;9.60;99.90;;;;;;5053336;28;20431;-80
2023/10/30 05:42:49;;;;;;;8.25;1.30;;;9.50;99.90;;;;;;5053008;28;20048;-80
2023/10/30 05:45:15;;;;;;;8.30;1.67;;;9.50;99.90;;;;;;5052474;28;20417;-80
2023/10/30 05:47:40;;;;;;;11.32;1.65;;;9.50;99.90;;;;;;5053298;28;20071;-80
2023/10/30 05:50:07;;;;;;;13.23;1.70;;;9.50;99.90;;;;;;5053159;28;20056;-80
2023/10/30 05:52:32;;;;;;;9.10;1.73;;;9.40;99.90;;;;;;5053236;28;20036;-80
2023/10/30 05:54:58;;;;;;;10.15;1.52;;;9.40;99.90;;;;;;5053354;28;20547;-81
2023/10/30 05:57:23;;;;;;;17.35;2.35;;;9.40;99.90;;;;;;5053239;28;20049;-79
2023/10/30 05:59:49;;;;;;;11.40;2.08;;;9.40;99.90;;;;;;5054710;28;20057;-80
2023/10/30 06:02:15;;;;;;;11.00;2.03;;;9.40;99.90;;;;;;5054065;28;20056;-80
2023/10/30 06:04:41;;;;;;;10.27;1.85;;;9.40;99.90;;;;;;5048166;28;20463;-80
2023/10/30 06:07:07;;;;;;;16.40;2.15;;;9.40;99.90;;;;;;5056636;28;20047;-80
2023/10/30 06:09:33;;;;;;;13.73;1.55;;;9.40;99.90;;;;;;5056808;28;20044;-80
2023/10/30 06:11:58;;;;;;;12.10;1.75;;;9.40;99.90;;;;;;5056511;28;20072;-80
2023/10/30 06:14:24;;;;;;;8.15;1.33;;;9.40;99.90;;;;;;5057630;28;20434;-79
2023/10/30 06:16:50;;;;;;;12.00;2.17;;;9.30;99.90;;;;;;5060637;28;20092;-80
2023/10/30 06:19:16;;;;;;;12.15;1.75;;;9.40;99.90;;;;;;5056392;28;20083;-80
2023/10/30 06:21:44;;;;;;;11.90;1.73;;;9.30;99.90;;;;;;5056429;28;20044;-80
2023/10/30 06:24:10;;;;;;;6.72;1.40;;;9.30;99.90;;;;;;5056340;28;20056;-79
2023/10/30 06:26:40;;;;;;;8.63;1.45;;;9.30;99.90;;;;;;5055926;28;20045;-79
2023/10/30 06:29:06;;;;;;;8.98;1.48;;;9.30;99.90;;;;;;5056461;28;20136;-81
2023/10/30 06:31:32;;;;;;;12.27;1.40;;;9.30;99.90;;;;;;5056622;28;20131;-80
2023/10/30 06:33:58;;;;;;;13.15;1.50;;;9.30;99.90;;;;;;5056272;28;20138;-80
2023/10/30 06:36:23;;;;;;;10.15;1.50;;;9.30;99.90;;;;;;5056422;28;20094;-80
2023/10/30 06:38:49;;;;;;;14.18;2.20;;;9.30;99.90;;;;;;5056325;28;20060;-80
2023/10/30 06:41:15;;;;;;;8.20;1.75;;;9.20;99.90;;;;;;5055706;28;20072;-80
2023/10/30 06:43:40;;;;;;;9.27;1.40;;;9.30;99.90;;;;;;5055574;28;20049;-80
2023/10/30 06:46:06;;;;;;;5.30;1.58;;;9.30;99.90;;;;;;5056223;28;20074;-80
2023/10/30 06:48:32;;;;;;;15.10;2.17;;;9.30;99.90;;;;;;5056008;28;20045;-80
2023/10/30 06:50:58;;;;;;;15.80;2.25;;;9.30;99.90;;;;;;5055531;28;20469;-80
2023/10/30 06:53:24;;;;;;;14.18;1.98;;;9.30;99.90;;;;;;5056014;28;20098;-81
2023/10/30 06:55:50;;;;;;;7.63;1.60;;;9.40;99.90;;;;;;5039457;28;20720;-80
2023/10/30 06:58:16;;;;;;;7.65;1.65;;;9.40;99.90;;;;;;5055797;28;20040;-82
2023/10/30 07:00:43;;;;;;;14.38;2.30;;;9.40;99.90;;;;;;5055195;28;20045;-82
2023/10/30 07:03:08;;;;;;;13.00;1.80;;;9.40;99.90;;;;;;5054868;28;20064;-81
2023/10/30 07:05:34;;;;;;;10.15;2.05;;;9.50;99.90;;;;;;5043725;28;20060;-81
2023/10/30 07:08:00;;;;;;;7.60;1.70;;;9.50;99.90;;;;;;5049779;28;20044;-81
2023/10/30 07:10:25;;;;;;;10.68;2.50;;;9.60;99.90;;;;;;5055136;28;20044;-81
2023/10/30 07:12:51;;;;;;;15.02;3.10;;;9.60;99.90;;;;;;5055061;28;20110;-81
2023/10/30 07:15:17;;;;;;;10.98;2.20;;;9.70;99.90;;;;;;5055371;28;20125;-81
2023/10/30 07:17:42;;;;;;;12.68;2.63;;;9.70;99.90;;;;;;5055419;28;20044;-81
2023/10/30 07:20:08;;;;;;;9.77;2.20;;;9.80;99.90;;;;;;5055473;28;20511;-80
2023/10/30 07:22:34;;;;;;;8.98;2.65;;;9.80;99.90;;;;;;5054950;28;20070;-80
2023/10/30 07:25:00;;;;;;;12.10;2.42;;;9.90;99.90;;;;;;5070957;28;20397;-79
2023/10/30 07:27:26;;;;;;;11.80;2.65;;;9.90;99.90;;;;;;5069070;28;20040;-80
2023/10/30 07:29:52;;;;;;;14.23;2.15;;;10.00;99.90;;;;;;5049016;28;20064;-80
2023/10/30 07:32:19;;;;;;;11.40;1.83;;;10.00;99.90;;;;;;5061464;28;20060;-80
2023/10/30 07:34:45;;;;;;;7.30;1.48;;;10.10;99.90;;;;;;5052990;28;20565;-79
2023/10/30 07:37:11;;;;;;;10.90;2.20;;;10.10;99.90;;;;;;5054966;28;20051;-79
2023/10/30 07:39:36;;;;;;;13.80;2.05;;;10.20;99.90;;;;;;5054433;28;20090;-80
2023/10/30 07:42:02;;;;;;;13.65;1.85;;;10.20;99.90;;;;;;5055102;28;20041;-80
2023/10/30 07:44:28;;;;;;;10.07;2.00;;;10.30;99.90;;;;;;5054598;28;20052;-79
2023/10/30 07:46:54;;;;;;;7.93;1.83;;;10.40;99.90;;;;;;5053440;28;20045;-80
2023/10/30 07:49:19;;;;;;;8.25;1.55;;;10.40;99.90;;;;;;5038407;28;20094;-80
2023/10/30 07:51:45;;;;;;;13.05;2.03;;;10.40;99.90;;;;;;5038922;28;20048;-81
2023/10/30 07:54:11;;;;;;;8.25;1.73;;;10.40;99.90;;;;;;5054946;28;20048;-80
2023/10/30 07:56:38;;;;;;;8.75;1.67;;;10.40;99.90;;;;;;5054460;28;20048;-81
2023/10/30 07:59:07;;;;;;;8.60;1.70;;;10.40;99.90;;;;;;5054844;28;20049;-80
2023/10/30 08:01:33;;;;;;;14.00;2.70;;;10.40;99.90;;;;;;5054081;28;20040;-80
2023/10/30 08:03:59;;;;;;;16.67;2.50;;;10.40;99.90;;;;;;5054471;28;20053;-80
2023/10/30 08:06:25;;;;;;;11.73;2.50;;;10.50;99.90;;;;;;5038020;28;20060;-80
2023/10/30 08:08:52;;;;;;;9.48;1.85;;;10.50;99.90;;;;;;5054891;28;20499;-81
2023/10/30 08:11:18;;;;;;;7.75;1.60;;;10.50;99.90;;;;;;5059707;28;20181;-79
2023/10/30 08:13:43;;;;;;;14.38;2.10;;;10.40;99.90;;;;;;5054238;28;20040;-79
2023/10/30 08:16:10;;;;;;;14.60;2.10;;;10.50;99.90;;;;;;5037674;28;20514;-79
2023/10/30 08:18:39;;;;;;;8.00;1.65;;;10.50;99.90;;;;;;5054147;28;20146;-80
2023/10/30 08:21:05;;;;;;;11.95;2.20;;;10.60;99.90;;;;;;5054453;28;20052;-79
2023/10/30 08:23:30;;;;;;;9.50;1.92;;;10.60;99.90;;;;;;5054509;28;20070;-79
2023/10/30 08:25:56;;;;;;;13.88;2.65;;;10.60;99.90;;;;;;5054417;28;20040;-79
2023/10/30 08:28:22;;;;;;;14.93;2.53;;;10.60;99.90;;;;;;5053460;28;20048;-79
2023/10/30 08:30:48;;;;;;;11.77;1.70;;;10.60;99.90;;;;;;5053926;28;20520;-79
2023/10/30 08:33:14;;;;;;;12.05;1.92;;;10.70;99.90;;;;;;5054054;28;20052;-79
2023/10/30 08:35:40;;;;;;;13.02;2.10;;;10.70;99.90;;;;;;5053916;28;20058;-79
2023/10/30 08:38:05;;;;;;;13.23;1.73;;;10.80;99.90;;;;;;5054186;28;20044;-79
2023/10/30 08:40:31;;;;;;;7.75;1.40;;;10.80;99.90;;;;;;5054244;28;20403;-78
2023/10/30 08:42:57;;;;;;;11.43;1.70;;;10.80;99.90;;;;;;5053743;28;20124;-79
2023/10/30 08:45:26;;;;;;;8.85;1.58;;;10.80;99.90;;;;;;5054037;28;20075;-80
2023/10/30 08:47:51;;;;;;;10.95;1.55;;;10.80;99.90;;;;;;5053412;28;20115;-79
2023/10/30 08:50:17;;;;;;;9.98;1.60;;;10.90;99.90;;;;;;5053741;28;20136;-79
2023/10/30 08:52:43;;;;;;;11.38;1.75;;;10.90;99.90;;;;;;5053316;28;20040;-78
2023/10/30 08:55:08;;;;;;;10.65;1.60;;;10.90;99.90;;;;;;5053855;28;20052;-79
2023/10/30 08:57:34;;;;;;;6.93;1.45;;;11.00;99.90;;;;;;5053857;28;20766;-79
2023/10/30 08:59:59;;;;;;;17.42;2.45;;;11.00;99.90;;;;;;5054127;28;20064;-79
2023/10/30 09:02:25;;;;;;;12.38;2.03;;;11.00;99.90;;;;;;5049307;28;20472;-79
2023/10/30 09:04:51;;;;;;;11.93;1.70;;;11.10;99.90;;;;;;5033451;28;20412;-79
2023/10/30 09:07:16;;;;;;;11.63;2.17;;;11.10;99.90;;;;;;5053643;28;20037;-80
2023/10/30 09:09:42;;;;;;;10.10;1.73;;;11.20;99.90;;;;;;5053316;28;20049;-79
2023/10/30 09:12:08;;;;;;;11.18;1.65;;;11.20;99.90;;;;;;5036928;28;20083;-80
2023/10/30 09:14:34;;;;;;;10.63;1.73;;;11.20;99.90;;;;;;5053397;28;20083;-80
2023/10/30 09:17:00;;;;;;;16.05;1.85;;;11.30;99.90;;;;;;5053226;28;20515;-78
2023/10/30 09:19:26;;;;;;;12.55;1.50;;;11.30;99.90;;;;;;5053808;28;20048;-80
2023/10/30 09:21:52;;;;;;;14.38;2.17;;;11.40;99.90;;;;;;5053525;28;20045;-79
2023/10/30 09:24:18;;;;;;;12.90;1.83;;;11.50;99.90;;;;;;5046310;28;20483;-80
2023/10/30 09:26:43;;;;;;;9.43;1.60;;;11.60;99.90;;;;;;5053522;28;20044;-79
2023/10/30 09:29:09;;;;;;;10.50;1.90;;;11.70;99.90;;;;;;5053790;28;20878;-80
2023/10/30 09:31:35;;;;;;;6.68;1.70;;;11.80;99.90;;;;;;5052793;28;20461;-80
2023/10/30 09:34:00;;;;;;;9.43;1.88;;;11.90;99.90;;;;;;5037296;28;20135;-79
2023/10/30 09:36:27;;;;;;;10.73;1.60;;;12.10;99.90;;;;;;5057804;28;20133;-80
2023/10/30 09:38:53;;;;;;;13.95;1.70;;;12.30;99.90;;;;;;5040967;28;20040;-80
2023/10/30 09:41:20;;;;;;;8.43;1.63;;;12.50;99.90;;;;;;5057310;28;20458;-79
2023/10/30 09:43:49;;;;;;;9.13;1.65;;;12.70;99.90;;;;;;5056961;28;20106;-80
2023/10/30 09:46:16;;;;;;;12.30;1.20;;;12.90;99.90;;;;;;5057037;28;20052;-79
2023/10/30 09:48:44;;;;;;;11.05;2.08;;;13.00;99.90;;;;;;5057142;28;20044;-79
2023/10/30 09:51:10;;;;;;;8.32;1.63;;;13.10;99.90;;;;;;5056626;28;20720;-79
2023/10/30 09:53:38;;;;;;;7.30;1.80;;;13.20;99.90;;;;;;5040238;28;20044;-79
2023/10/30 09:56:06;;;;;;;11.18;2.00;;;13.30;99.90;;;;;;5057118;28;20056;-79
2023/10/30 09:58:33;;;;;;;9.85;1.70;;;13.30;99.90;;;;;;5056602;28;20049;-80
2023/10/30 10:00:59;;;;;;;9.52;2.03;;;13.40;99.90;;;;;;5056568;28;20060;-80
2023/10/30 10:03:25;;;;;;;11.77;1.73;;;13.50;99.90;;;;;;5060225;28;20080;-80
2023/10/30 10:05:59;;;;;;;9.40;1.48;;;13.50;99.90;;;;;;5056859;28;20071;-79
2023/10/30 10:08:27;;;;;;;9.60;1.50;;;13.50;99.90;;;;;;5057014;28;20147;-79
2023/10/30 10:11:00;;;;;;;8.10;1.45;;;13.60;99.90;;;;;;5056750;28;20127;-80
2023/10/30 10:13:32;;;;;;;12.33;1.43;;;13.60;99.90;;;;;;5056640;28;20491;-80
2023/10/30 10:15:59;;;;;;;12.00;1.77;;;13.70;99.90;;;;;;5039980;28;20510;-80
2023/10/30 10:18:26;;;;;;;13.73;2.60;;;13.70;99.90;;;;;;5056334;28;20466;-80
2023/10/30 10:20:56;;;;;;;7.32;1.17;;;13.70;99.90;;;;;;5056763;28;20097;-79
2023/10/30 10:23:23;;;;;;;11.80;1.92;;;13.70;99.90;;;;;;5055901;28;20048;-80
2023/10/30 10:25:56;;;;;;;13.07;1.85;;;13.70;99.90;;;;;;5056457;28;20143;-80
2023/10/30 10:28:25;;;;;;;7.10;1.90;;;13.60;99.90;;;;;;5056504;28;20491;-80
2023/10/30 10:30:53;;;;;;;11.73;1.52;;;13.50;99.90;;;;;;5056308;28;20056;-80
2023/10/30 10:33:24;;;;;;;9.43;1.40;;;13.40;99.90;;;;;;5056450;28;20167;-80
2023/10/30 10:36:04;;;;;;;10.93;1.80;;;13.30;99.90;;;;;;5049055;28;20044;-79
2023/10/30 10:38:31;;;;;;;11.00;1.40;;;13.30;99.90;;;;;;5036411;28;20131;-80
2023/10/30 10:40:57;;;;;;;10.40;1.70;;;13.40;99.90;;;;;;5055083;28;20087;-80
2023/10/30 10:43:25;;;;;;;10.52;1.50;;;13.40;99.90;;;;;;5056149;28;20106;-79
2023/10/30 10:45:53;;;;;;;8.90;1.50;;;13.50;99.90;;;;;;5056011;28;20080;-79
2023/10/30 10:48:21;;;;;;;10.00;1.50;;;13.50;99.90;;;;;;5039697;28;20114;-79
2023/10/30 10:50:47;;;;;;;13.13;1.92;;;13.40;99.90;;;;;;5056601;28;20048;-79
2023/10/30 10:53:14;;;;;;;13.35;1.98;;;13.40;99.90;;;;;;5055691;28;20082;-79
2023/10/30 10:55:43;;;;;;;8.52;1.40;;;13.30;99.90;;;;;;5055962;28;20518;-79
2023/10/30 10:58:19;;;;;;;9.18;1.30;;;13.30;99.90;;;;;;5055719;28;20060;-79
2023/10/30 11:00:50;;;;;;;11.50;1.67;;;13.30;99.90;;;;;;5055549;28;20127;-79
2023/10/30 11:03:17;;;;;;;8.82;1.77;;;13.30;99.90;;;;;;5056064;28;20059;-80
2023/10/30 11:05:47;;;;;;;9.30;1.25;;;13.30;99.90;;;;;;5055806;28;20048;-81
2023/10/30 11:08:32;;;;;;;11.18;2.25;;;13.30;99.90;;;;;;5055638;28;20109;-81
2023/10/30 11:11:35;;;;;;;11.85;2.58;;;13.20;99.90;;;;;;5056084;28;20041;-81
2023/10/30 11:14:30;;;;;;;9.57;2.53;;;13.20;99.90;;;;;;5055460;28;20084;-80
2023/10/30 11:17:01;;;;;;;11.90;1.48;;;13.20;99.90;;;;;;5001572;28;20457;-80
2023/10/30 11:19:28;;;;;;;11.15;1.52;;;13.20;99.90;;;;;;5055740;28;20048;-81
2023/10/30 11:21:54;;;;;;;10.15;1.70;;;13.30;99.90;;;;;;5055082;28;20564;-80
2023/10/30 11:24:45;;;;;;;8.40;1.67;;;13.60;99.90;;;;;;5055643;28;20048;-79
2023/10/30 11:27:26;;;;;;;10.70;1.95;;;13.80;99.90;;;;;;5055227;28;20052;-80
2023/10/30 11:29:58;;;;;;;13.63;2.10;;;14.00;99.90;;;;;;5055101;28;20074;-80
2023/10/30 11:32:25;;;;;;;18.67;2.45;;;14.00;99.90;;;;;;5055490;28;20044;-80
2023/10/30 11:34:51;;;;;;;8.95;1.80;;;14.00;99.90;;;;;;5054934;28;20054;-80
2023/10/30 11:37:21;;;;;;;9.77;2.10;;;14.00;99.90;;;;;;5055371;28;20048;-80
2023/10/30 11:39:50;;;;;;;10.60;1.65;;;14.00;99.90;;;;;;5054608;28;20052;-79
2023/10/30 11:42:21;;;;;;;11.20;2.05;;;14.10;99.90;;;;;;5054801;28;20044;-81
2023/10/30 11:44:47;;;;;;;9.95;1.83;;;14.20;99.90;;;;;;5055217;28;20053;-81
2023/10/30 11:47:13;;;;;;;12.75;1.60;;;14.20;99.90;;;;;;5055003;28;20044;-81
2023/10/30 11:49:41;;;;;;;14.18;2.15;;;14.30;99.90;;;;;;5054617;28;20048;-81
2023/10/30 11:52:10;;;;;;;8.43;1.98;;;14.50;99.90;;;;;;5054105;28;20040;-80
2023/10/30 11:54:39;;;;;;;11.27;1.92;;;14.50;99.90;;;;;;5054785;28;20045;-80
2023/10/30 11:57:05;;;;;;;10.00;1.73;;;14.50;99.90;;;;;;5054393;28;20048;-81
2023/10/30 11:59:31;;;;;;;13.50;2.08;;;14.40;99.90;;;;;;5059492;28;20049;-80
2023/10/30 12:01:57;;;;;;;10.05;2.03;;;14.40;99.90;;;;;;5068079;28;20067;-80
2023/10/30 12:04:24;;;;;;;9.55;1.35;;;14.30;99.90;;;;;;5054273;28;20048;-80
2023/10/30 12:06:50;;;;;;;6.82;1.50;;;14.30;99.90;;;;;;5054754;28;20053;-80
2023/10/30 12:09:16;;;;;;;7.32;1.20;;;14.30;99.90;;;;;;5054896;28;20044;-80
2023/10/30 12:11:43;;;;;;;12.73;1.85;;;14.20;99.90;;;;;;5054481;28;20123;-80
2023/10/30 12:14:10;;;;;;;7.38;1.70;;;14.10;99.90;;;;;;5072282;28;20155;-81
2023/10/30 12:16:36;;;;;;;10.27;2.05;;;14.10;99.90;;;;;;5054307;28;20139;-80
2023/10/30 12:19:02;;;;;;;11.13;2.45;;;14.00;99.90;;;;;;5037911;28;20509;-80
2023/10/30 12:21:29;;;;;;;11.07;1.88;;;14.00;99.90;;;;;;5053942;28;20215;-80
2023/10/30 12:23:57;;;;;;;10.07;1.80;;;14.00;99.90;;;;;;5053940;28;20052;-80
2023/10/30 12:26:23;;;;;;;8.40;1.95;;;14.00;99.90;;;;;;5054560;28;20059;-80
2023/10/30 12:28:49;;;;;;;9.20;1.60;;;13.90;99.90;;;;;;5054407;28;20060;-80
2023/10/30 12:31:23;;;;;;;11.82;2.03;;;13.90;99.90;;;;;;5037403;28;20044;-80
2023/10/30 12:34:22;;;;;;;15.15;2.40;;;13.90;99.90;;;;;;5054358;28;20053;-80
2023/10/30 12:36:48;;;;;;;8.70;2.30;;;13.80;99.90;;;;;;5031107;28;20737;-80
2023/10/30 12:39:16;;;;;;;9.60;1.88;;;13.90;99.90;;;;;;5052255;28;20051;-80
2023/10/30 12:41:43;;;;;;;12.82;2.00;;;13.80;99.90;;;;;;5054132;28;20032;-80
2023/10/30 12:44:08;;;;;;;8.43;1.67;;;13.80;99.90;;;;;;5053934;28;20162;-80
2023/10/30 12:46:34;;;;;;;10.00;1.98;;;13.80;99.90;;;;;;5053855;28;20072;-80